Terminal Aerodrome Forecast
Issued by NWS

Home | Current Version | Previous Version | Text Only | Print | Product List | Glossary On
Versions: 1 2 3 4 5 6 7 8 9 10 11 12 13 14 15
000
FTUS43 KAPX 272331
TAFMBL
TAF
KMBL 272331Z 2800/2824 28007KT P6SM -SHRA SCT013 OVC040
      TEMPO 2800/2804 5SM -SHRA SCT013 OVC028
     FM280900 VRB03KT P6SM -SHRA OVC040
     FM281400 07006KT P6SM VCSH OVC040
     FM281600 07008KT P6SM VCSH SCT025 BKN035
     FM281900 04009KT P6SM SCT025 BKN035
     FM282200 03010G18KT P6SM SCT050=

USA.gov is the U.S. government's official web portal to all federal, state and local government web resources and services.